Time;durP1;ratioP1;P1;durP2;ratioP2;P2;SDS_P1;SDS_P2;PMS_P1;PMS_P2;Temp;Humidity;BMP_temperature;BMP_pressure;BME280_temperature;BME280_humidity;BME280_pressure;Samples;Min_cycle;Max_cycle;Signal;HPM_P1;HPM_P2
2021/03/02 00:00:05;;;;;;;22.88;9.13;;;4.10;93.80;;;;;;5002563;28;20037;-73
2021/03/02 00:02:32;;;;;;;24.65;9.57;;;4.10;94.00;;;;;;5002111;28;20240;-72
2021/03/02 00:04:57;;;;;;;20.60;8.27;;;4.10;94.30;;;;;;5002557;28;20554;-73
2021/03/02 00:07:26;;;;;;;20.77;8.57;;;4.10;94.30;;;;;;5002152;28;20120;-73
2021/03/02 00:09:52;;;;;;;22.80;9.15;;;4.00;94.40;;;;;;5005457;28;20041;-73
2021/03/02 00:12:18;;;;;;;30.58;9.05;;;4.00;95.10;;;;;;5003315;28;20042;-73
2021/03/02 00:14:44;;;;;;;27.67;10.18;;;4.00;95.00;;;;;;5002496;28;20052;-72
2021/03/02 00:17:34;;;;;;;27.45;8.95;;;4.00;95.50;;;;;;5004320;28;20034;-73
2021/03/02 00:20:11;;;;;;;29.08;10.60;;;4.00;95.50;;;;;;5004198;28;20046;-73
2021/03/02 00:22:52;;;;;;;27.55;9.35;;;3.90;96.00;;;;;;5002426;28;20513;-73
2021/03/02 00:25:17;;;;;;;24.00;9.75;;;3.90;95.60;;;;;;5001493;28;20033;-73
2021/03/02 00:27:43;;;;;;;22.15;9.25;;;3.90;95.90;;;;;;5008805;28;20044;-73
2021/03/02 00:30:10;;;;;;;20.50;8.63;;;3.80;96.10;;;;;;5009109;28;20089;-73
2021/03/02 00:32:37;;;;;;;25.08;9.15;;;3.80;96.80;;;;;;5009176;28;20159;-73
2021/03/02 00:35:04;;;;;;;28.88;9.02;;;3.90;97.30;;;;;;5004216;28;20128;-73
2021/03/02 00:37:29;;;;;;;22.02;9.10;;;3.90;97.00;;;;;;4999970;28;20603;-73
2021/03/02 00:39:55;;;;;;;27.95;9.57;;;3.80;97.40;;;;;;5001383;28;20117;-73
2021/03/02 00:42:20;;;;;;;25.70;9.65;;;3.80;97.50;;;;;;5000823;28;20072;-74
2021/03/02 00:44:46;;;;;;;18.65;8.85;;;3.70;97.20;;;;;;5001843;28;20045;-73
2021/03/02 00:47:12;;;;;;;24.60;8.65;;;3.70;97.40;;;;;;5001207;28;20087;-74
2021/03/02 00:49:38;;;;;;;22.67;9.18;;;3.70;97.50;;;;;;5004335;28;20038;-74
2021/03/02 00:52:03;;;;;;;19.45;8.30;;;3.60;97.70;;;;;;5001924;28;20029;-73
2021/03/02 00:54:29;;;;;;;24.40;8.70;;;3.60;97.60;;;;;;5001481;28;20095;-73
2021/03/02 00:56:54;;;;;;;23.45;9.10;;;3.50;98.20;;;;;;5003819;28;20034;-73
2021/03/02 00:59:20;;;;;;;25.83;9.30;;;3.50;99.50;;;;;;5004386;28;20037;-73
2021/03/02 01:01:45;;;;;;;24.48;8.98;;;3.50;99.90;;;;;;5005799;28;20111;-73
2021/03/02 01:04:11;;;;;;;27.45;10.20;;;3.50;99.90;;;;;;5005401;28;20037;-73
2021/03/02 01:06:36;;;;;;;24.75;9.80;;;3.50;99.90;;;;;;5005673;28;20597;-72
2021/03/02 01:09:06;;;;;;;26.45;8.65;;;3.40;99.90;;;;;;5006083;28;20441;-72
2021/03/02 01:11:32;;;;;;;26.55;8.63;;;3.40;99.90;;;;;;5007872;28;20041;-73
2021/03/02 01:13:58;;;;;;;29.52;8.88;;;3.40;99.90;;;;;;5006016;28;20037;-73
2021/03/02 01:16:23;;;;;;;29.20;9.88;;;3.50;99.90;;;;;;5006260;28;20036;-73
2021/03/02 01:18:49;;;;;;;24.17;9.95;;;3.50;99.90;;;;;;5005154;28;20045;-72
2021/03/02 01:21:14;;;;;;;22.98;8.40;;;3.40;99.90;;;;;;5004969;28;20051;-73
2021/03/02 01:23:40;;;;;;;19.20;7.90;;;3.50;99.90;;;;;;5005161;28;20049;-73
2021/03/02 01:26:05;;;;;;;21.10;9.35;;;3.50;99.90;;;;;;5007210;28;20065;-73
2021/03/02 01:28:31;;;;;;;21.25;8.82;;;3.40;99.90;;;;;;5002553;28;20047;-73
2021/03/02 01:30:57;;;;;;;19.13;8.63;;;3.40;99.90;;;;;;5001644;28;20053;-73
2021/03/02 01:33:22;;;;;;;28.63;9.25;;;3.40;99.90;;;;;;5001552;28;20063;-73
2021/03/02 01:35:48;;;;;;;21.48;8.63;;;3.40;99.90;;;;;;5009433;28;20034;-73
2021/03/02 01:38:13;;;;;;;17.77;7.57;;;3.30;99.90;;;;;;5001542;28;20033;-73
2021/03/02 01:40:39;;;;;;;17.05;7.07;;;3.40;99.90;;;;;;5003016;28;20526;-73
2021/03/02 01:43:05;;;;;;;15.90;7.43;;;3.30;99.90;;;;;;5001382;28;20030;-73
2021/03/02 01:45:30;;;;;;;27.13;8.43;;;3.30;99.90;;;;;;5001049;28;20041;-73
2021/03/02 01:47:56;;;;;;;16.02;7.72;;;3.30;99.90;;;;;;5005602;28;20042;-73
2021/03/02 01:50:23;;;;;;;24.17;8.25;;;3.30;99.90;;;;;;5004143;28;20039;-72
2021/03/02 01:52:49;;;;;;;22.75;8.35;;;3.20;99.90;;;;;;5004230;28;20040;-73
2021/03/02 01:55:16;;;;;;;23.33;8.63;;;3.20;99.90;;;;;;5002537;28;20430;-73
2021/03/02 01:57:41;;;;;;;23.48;8.73;;;3.20;99.90;;;;;;5005085;28;20572;-73
2021/03/02 02:00:22;;;;;;;24.17;9.27;;;3.10;99.90;;;;;;5004706;28;20054;-73
2021/03/02 02:02:56;;;;;;;20.63;7.85;;;3.10;99.90;;;;;;5005115;28;20491;-73
2021/03/02 02:05:24;;;;;;;20.08;7.70;;;3.20;99.90;;;;;;5000919;28;20415;-73
2021/03/02 02:07:56;;;;;;;21.48;7.93;;;3.10;99.90;;;;;;5011763;28;20052;-73
2021/03/02 02:10:33;;;;;;;19.85;6.90;;;3.10;99.90;;;;;;5004936;28;20037;-72
2021/03/02 02:13:07;;;;;;;18.25;7.78;;;3.10;99.90;;;;;;5002353;28;20422;-73
2021/03/02 02:15:38;;;;;;;21.48;8.38;;;3.00;99.90;;;;;;5010774;28;20419;-73
2021/03/02 02:18:11;;;;;;;18.83;9.10;;;3.00;99.90;;;;;;4998780;28;20049;-73
2021/03/02 02:20:58;;;;;;;19.77;8.93;;;3.00;99.90;;;;;;5000675;28;20033;-74
2021/03/02 02:23:33;;;;;;;26.77;8.75;;;2.90;99.90;;;;;;5000927;28;20041;-73
2021/03/02 02:26:35;;;;;;;24.20;7.75;;;2.90;99.90;;;;;;5002567;28;20061;-73
2021/03/02 02:29:02;;;;;;;19.77;8.50;;;2.90;99.90;;;;;;5003373;28;20053;-72
2021/03/02 02:31:29;;;;;;;21.40;7.75;;;2.90;99.90;;;;;;5012195;28;20029;-72
2021/03/02 02:33:56;;;;;;;17.38;7.50;;;2.90;99.90;;;;;;5003828;28;20034;-72
2021/03/02 02:36:23;;;;;;;16.30;7.35;;;2.80;99.90;;;;;;5002654;28;20037;-72
2021/03/02 02:38:55;;;;;;;20.17;8.38;;;2.80;99.90;;;;;;5003783;28;20064;-73
2021/03/02 02:41:21;;;;;;;15.95;7.57;;;2.80;99.90;;;;;;5004351;28;20102;-74
2021/03/02 02:43:51;;;;;;;21.58;8.02;;;2.80;99.90;;;;;;5003828;28;20095;-73
2021/03/02 02:46:18;;;;;;;17.73;7.40;;;2.80;99.90;;;;;;5004802;28;20045;-72
2021/03/02 02:48:46;;;;;;;18.42;8.63;;;2.70;99.90;;;;;;5005059;28;20491;-73
2021/03/02 02:51:12;;;;;;;19.67;8.00;;;2.70;99.90;;;;;;5004442;28;20046;-73
2021/03/02 02:53:39;;;;;;;19.75;8.02;;;2.70;99.90;;;;;;5004180;28;20034;-73
2021/03/02 02:56:05;;;;;;;21.48;8.30;;;2.60;99.90;;;;;;5004412;28;20631;-74
2021/03/02 02:58:49;;;;;;;17.20;7.50;;;2.60;99.90;;;;;;5004363;28;20049;-73
2021/03/02 03:01:15;;;;;;;19.58;8.18;;;2.60;99.90;;;;;;5003693;28;20076;-73
2021/03/02 03:03:45;;;;;;;17.90;8.23;;;2.60;99.90;;;;;;5012724;28;20124;-73
2021/03/02 03:06:15;;;;;;;17.48;8.20;;;2.50;99.90;;;;;;5011155;28;20065;-73
2021/03/02 03:08:48;;;;;;;21.60;8.57;;;2.50;99.90;;;;;;5002184;28;20752;-73
2021/03/02 03:11:16;;;;;;;17.67;7.32;;;2.50;99.90;;;;;;4979817;28;20096;-73
2021/03/02 03:13:44;;;;;;;21.02;7.90;;;2.50;99.90;;;;;;4977716;28;20117;-73
2021/03/02 03:16:12;;;;;;;17.85;8.10;;;2.60;99.90;;;;;;4983149;28;20052;-73
2021/03/02 03:18:46;;;;;;;17.85;7.13;;;2.50;99.90;;;;;;4994173;28;20037;-73
2021/03/02 03:21:13;;;;;;;21.70;9.23;;;2.50;99.90;;;;;;5012116;28;20104;-73
2021/03/02 03:23:40;;;;;;;19.65;7.68;;;2.50;99.90;;;;;;4998103;28;20409;-73
2021/03/02 03:26:08;;;;;;;19.67;7.40;;;2.50;99.90;;;;;;4979884;28;20148;-73
2021/03/02 03:28:34;;;;;;;19.35;7.53;;;2.50;99.90;;;;;;4963036;28;20069;-73
2021/03/02 03:31:01;;;;;;;16.67;7.80;;;2.40;99.90;;;;;;5014857;28;20044;-73
2021/03/02 03:33:28;;;;;;;21.17;8.43;;;2.40;99.90;;;;;;5010967;28;20120;-73
2021/03/02 03:35:53;;;;;;;24.00;8.55;;;2.50;99.90;;;;;;4987276;28;20042;-73
2021/03/02 03:38:19;;;;;;;21.75;8.57;;;2.40;99.90;;;;;;4993131;28;20048;-73
2021/03/02 03:40:45;;;;;;;19.02;7.78;;;2.40;99.90;;;;;;5004775;28;20044;-72
2021/03/02 03:43:10;;;;;;;21.05;9.00;;;2.40;99.90;;;;;;5015757;28;20033;-72
2021/03/02 03:45:36;;;;;;;21.92;8.23;;;2.40;99.90;;;;;;5013957;28;20033;-72
2021/03/02 03:48:01;;;;;;;20.80;8.13;;;2.40;99.90;;;;;;5003677;28;20127;-72
2021/03/02 03:50:27;;;;;;;20.20;8.65;;;2.40;99.90;;;;;;5004108;28;20026;-72
2021/03/02 03:52:56;;;;;;;19.20;7.95;;;2.30;99.90;;;;;;5006187;28;20125;-72
2021/03/02 03:55:27;;;;;;;18.42;7.93;;;2.30;99.90;;;;;;5005235;28;20034;-72
2021/03/02 03:57:52;;;;;;;20.27;8.60;;;2.20;99.90;;;;;;5006828;28;20522;-72
2021/03/02 04:00:19;;;;;;;28.55;8.93;;;2.20;99.90;;;;;;5002684;28;20049;-72
2021/03/02 04:02:45;;;;;;;18.10;8.10;;;2.20;99.90;;;;;;5004879;28;20516;-73
2021/03/02 04:05:13;;;;;;;20.35;8.32;;;2.20;99.90;;;;;;5008690;28;20624;-73
2021/03/02 04:07:39;;;;;;;19.45;8.45;;;2.10;99.90;;;;;;5014286;28;20033;-74
2021/03/02 04:10:07;;;;;;;29.73;9.00;;;2.10;99.90;;;;;;5003178;28;20038;-74
2021/03/02 04:12:40;;;;;;;18.10;8.10;;;2.20;99.90;;;;;;5003700;28;20044;-73
2021/03/02 04:15:13;;;;;;;27.20;8.45;;;2.20;99.90;;;;;;5002266;28;20510;-73
2021/03/02 04:17:39;;;;;;;19.27;7.78;;;2.20;99.90;;;;;;5013922;28;20056;-73
2021/03/02 04:20:06;;;;;;;18.95;8.45;;;2.20;99.90;;;;;;5003943;28;20572;-73
2021/03/02 04:22:36;;;;;;;21.25;8.45;;;2.10;99.90;;;;;;5004570;28;20095;-73
2021/03/02 04:25:03;;;;;;;18.08;8.27;;;2.10;99.90;;;;;;5004318;28;20046;-74
2021/03/02 04:27:29;;;;;;;15.75;7.70;;;2.10;99.90;;;;;;5001272;28;20518;-73
2021/03/02 04:29:54;;;;;;;26.75;8.32;;;2.10;99.90;;;;;;5001193;28;20053;-74
2021/03/02 04:32:20;;;;;;;25.15;8.45;;;2.10;99.90;;;;;;5002074;28;20599;-73
2021/03/02 04:34:45;;;;;;;22.38;9.27;;;2.00;99.90;;;;;;4999541;28;20046;-73
2021/03/02 04:37:11;;;;;;;24.15;9.30;;;2.00;99.90;;;;;;5001983;28;20045;-74
2021/03/02 04:39:37;;;;;;;20.88;8.68;;;2.00;99.90;;;;;;4999697;28;20042;-74
2021/03/02 04:42:03;;;;;;;25.52;8.57;;;2.00;99.90;;;;;;5001223;28;20415;-73
2021/03/02 04:44:29;;;;;;;22.35;8.85;;;2.00;99.90;;;;;;5001266;28;20049;-74
2021/03/02 04:46:54;;;;;;;24.20;9.68;;;1.90;99.90;;;;;;5001191;28;20065;-73
2021/03/02 04:49:20;;;;;;;24.10;10.25;;;1.90;99.90;;;;;;5001662;28;20081;-73
2021/03/02 04:51:45;;;;;;;20.00;8.80;;;1.90;99.90;;;;;;5004954;28;20033;-73
2021/03/02 04:54:11;;;;;;;22.92;9.07;;;1.90;99.90;;;;;;5001939;28;20399;-73
2021/03/02 04:56:36;;;;;;;20.35;8.82;;;1.90;99.90;;;;;;5001450;28;20116;-74
2021/03/02 04:59:02;;;;;;;22.85;9.98;;;1.90;99.90;;;;;;4999858;28;20037;-73
2021/03/02 05:01:28;;;;;;;25.35;9.57;;;1.90;99.90;;;;;;5002297;28;20506;-73
2021/03/02 05:03:53;;;;;;;27.60;8.82;;;1.90;99.90;;;;;;5001042;28;20034;-73
2021/03/02 05:06:19;;;;;;;20.85;8.43;;;1.90;99.90;;;;;;5003529;28;20037;-73
2021/03/02 05:08:44;;;;;;;23.30;9.80;;;1.90;99.90;;;;;;5001804;28;20104;-73
2021/03/02 05:11:10;;;;;;;21.80;8.77;;;1.90;99.90;;;;;;5014161;28;20034;-73
2021/03/02 05:13:35;;;;;;;22.70;9.20;;;1.80;99.90;;;;;;5000814;28;20124;-71
2021/03/02 05:16:01;;;;;;;33.05;9.70;;;1.80;99.90;;;;;;4998241;28;20038;-74
2021/03/02 05:18:26;;;;;;;28.50;8.77;;;1.70;99.90;;;;;;5002510;28;20037;-72
2021/03/02 05:20:52;;;;;;;21.88;10.40;;;1.70;99.90;;;;;;5001107;28;20137;-72
2021/03/02 05:23:17;;;;;;;27.77;9.32;;;1.70;99.90;;;;;;5000597;28;20034;-72
2021/03/02 05:25:43;;;;;;;23.30;9.98;;;1.70;99.90;;;;;;4999960;28;20034;-72
2021/03/02 05:28:08;;;;;;;24.88;9.52;;;1.70;99.90;;;;;;4999241;28;20040;-72
2021/03/02 05:30:34;;;;;;;21.80;9.55;;;1.70;99.90;;;;;;5000934;28;20052;-72
2021/03/02 05:32:59;;;;;;;19.75;9.30;;;1.70;99.90;;;;;;5014251;28;20753;-72
2021/03/02 05:35:25;;;;;;;20.63;9.15;;;1.70;99.90;;;;;;4997817;28;20034;-72
2021/03/02 05:37:50;;;;;;;21.20;8.75;;;1.70;99.90;;;;;;4999345;28;20068;-72
2021/03/02 05:40:16;;;;;;;28.13;9.98;;;1.60;99.90;;;;;;4999599;28;20442;-72
2021/03/02 05:42:42;;;;;;;25.02;9.88;;;1.60;99.90;;;;;;5003388;28;20529;-72
2021/03/02 05:45:08;;;;;;;21.48;9.27;;;1.60;99.90;;;;;;4997887;28;20060;-72
2021/03/02 05:47:34;;;;;;;27.05;8.77;;;1.60;99.90;;;;;;5001046;28;20277;-72
2021/03/02 05:50:02;;;;;;;27.38;9.38;;;1.70;99.90;;;;;;5005018;28;20277;-72
2021/03/02 05:52:30;;;;;;;20.58;9.32;;;1.70;99.90;;;;;;5007653;28;20109;-72
2021/03/02 05:54:57;;;;;;;20.08;8.88;;;1.60;99.90;;;;;;5002724;28;20480;-72
2021/03/02 05:57:23;;;;;;;24.40;9.40;;;1.60;99.90;;;;;;5004999;28;20450;-72
2021/03/02 05:59:52;;;;;;;24.30;9.32;;;1.60;99.90;;;;;;5007559;28;20049;-72
2021/03/02 06:02:18;;;;;;;29.15;10.25;;;1.60;99.90;;;;;;4999867;28;20052;-73
2021/03/02 06:04:47;;;;;;;27.77;10.57;;;1.60;99.90;;;;;;5000479;28;20402;-73
2021/03/02 06:07:12;;;;;;;32.20;10.75;;;1.60;99.90;;;;;;5000388;28;20052;-72
2021/03/02 06:09:38;;;;;;;27.83;10.38;;;1.70;99.90;;;;;;4999200;28;20042;-73
2021/03/02 06:12:05;;;;;;;26.70;11.18;;;1.70;99.90;;;;;;5000909;28;20038;-72
2021/03/02 06:14:35;;;;;;;19.75;9.00;;;1.70;99.90;;;;;;5000365;28;20041;-73
2021/03/02 06:17:02;;;;;;;23.65;10.32;;;1.70;99.90;;;;;;4999072;28;20044;-70
2021/03/02 06:19:40;;;;;;;23.90;10.10;;;1.60;99.90;;;;;;4999797;28;20049;-72
2021/03/02 06:22:06;;;;;;;33.08;11.10;;;1.70;99.90;;;;;;5012994;28;20038;-72
2021/03/02 06:24:37;;;;;;;27.63;9.90;;;1.70;99.90;;;;;;4999566;28;20043;-71
2021/03/02 06:27:10;;;;;;;23.67;9.93;;;1.70;99.90;;;;;;5011200;28;20069;-73
2021/03/02 06:29:36;;;;;;;28.73;10.57;;;1.70;99.90;;;;;;4996572;28;20041;-72
2021/03/02 06:32:01;;;;;;;28.15;10.45;;;1.70;99.90;;;;;;5000482;28;20033;-73
2021/03/02 06:34:27;;;;;;;26.23;10.52;;;1.80;99.90;;;;;;4996116;28;20654;-73
2021/03/02 06:36:52;;;;;;;29.45;10.63;;;1.80;99.90;;;;;;4986335;28;20034;-72
2021/03/02 06:39:28;;;;;;;28.00;9.85;;;1.90;99.90;;;;;;5004449;28;20172;-73
2021/03/02 06:42:19;;;;;;;29.35;10.07;;;1.80;99.90;;;;;;5012259;28;20388;-74
2021/03/02 06:45:03;;;;;;;26.05;10.25;;;1.90;99.90;;;;;;4997860;28;20046;-74
2021/03/02 06:47:40;;;;;;;26.80;10.25;;;2.00;99.90;;;;;;5008324;28;20461;-77
2021/03/02 06:50:12;;;;;;;35.33;9.85;;;2.00;99.90;;;;;;5000817;28;20033;-74
2021/03/02 06:52:42;;;;;;;27.38;10.13;;;2.10;99.90;;;;;;4998079;28;20179;-74
2021/03/02 06:55:25;;;;;;;29.15;10.95;;;2.20;99.90;;;;;;4999567;28;20041;-75
2021/03/02 06:57:51;;;;;;;26.73;11.10;;;2.30;99.90;;;;;;4998606;28;20036;-75
2021/03/02 07:00:30;;;;;;;27.38;11.35;;;2.40;99.90;;;;;;5003985;28;20042;-75
2021/03/02 07:02:56;;;;;;;27.40;11.18;;;2.60;99.90;;;;;;5009759;28;20041;-76
2021/03/02 07:05:21;;;;;;;35.72;10.80;;;2.70;99.90;;;;;;5004974;28;20546;-76
2021/03/02 07:07:59;;;;;;;35.88;12.13;;;2.80;99.90;;;;;;5003105;28;20069;-75
2021/03/02 07:10:25;;;;;;;44.55;13.20;;;2.90;99.90;;;;;;5005283;28;20049;-75
2021/03/02 07:12:55;;;;;;;43.35;12.00;;;3.10;99.90;;;;;;5001697;28;20060;-75
2021/03/02 07:15:23;;;;;;;33.35;13.20;;;3.30;99.90;;;;;;5000046;28;20160;-77
2021/03/02 07:17:55;;;;;;;50.22;12.30;;;3.40;99.90;;;;;;5010309;28;20159;-77
2021/03/02 07:20:24;;;;;;;51.20;12.80;;;3.80;99.90;;;;;;5001800;28;20139;-76
2021/03/02 07:22:52;;;;;;;45.58;12.50;;;4.00;99.90;;;;;;5004494;28;20045;-76
2021/03/02 07:25:19;;;;;;;37.80;12.27;;;4.10;99.90;;;;;;5002446;28;20045;-77
2021/03/02 07:27:49;;;;;;;30.70;12.48;;;4.40;99.90;;;;;;5004085;28;20052;-78
2021/03/02 07:30:15;;;;;;;31.58;12.60;;;4.80;99.90;;;;;;5000446;28;20144;-76
2021/03/02 07:32:42;;;;;;;35.65;12.35;;;5.30;99.90;;;;;;4999567;28;20391;-76
2021/03/02 07:35:09;;;;;;;43.80;13.85;;;5.70;99.90;;;;;;5000219;28;20115;-77
2021/03/02 07:37:34;;;;;;;41.22;12.70;;;6.00;99.20;;;;;;5001610;28;20037;-77
2021/03/02 07:40:11;;;;;;;32.47;12.30;;;6.80;95.30;;;;;;5007787;28;20537;-77
2021/03/02 07:42:37;;;;;;;33.92;11.55;;;7.50;89.70;;;;;;4999061;28;20046;-77
2021/03/02 07:45:15;;;;;;;30.75;11.30;;;8.00;83.40;;;;;;4999746;28;20034;-77
2021/03/02 07:47:44;;;;;;;34.10;12.68;;;8.30;79.30;;;;;;4998009;28;20053;-78
2021/03/02 07:50:31;;;;;;;31.85;11.35;;;8.10;76.30;;;;;;5004048;28;20090;-78
2021/03/02 07:53:15;;;;;;;33.05;11.52;;;7.80;76.10;;;;;;4997737;28;20088;-78
2021/03/02 07:55:42;;;;;;;34.13;12.43;;;7.80;78.60;;;;;;5002073;28;20046;-78
2021/03/02 07:58:21;;;;;;;32.25;12.18;;;7.70;76.90;;;;;;5009874;28;20737;-76
2021/03/02 08:00:48;;;;;;;33.63;10.40;;;7.80;77.90;;;;;;4998736;28;20061;-78
2021/03/02 08:03:30;;;;;;;36.10;11.25;;;8.00;76.00;;;;;;5008574;28;20026;-79
2021/03/02 08:06:22;;;;;;;26.35;11.20;;;8.10;75.60;;;;;;5006896;28;20036;-77
2021/03/02 08:08:49;;;;;;;28.20;10.70;;;8.50;72.80;;;;;;5014121;28;20033;-78
2021/03/02 08:11:32;;;;;;;29.83;13.18;;;8.70;71.10;;;;;;5006245;28;20136;-78
2021/03/02 08:14:24;;;;;;;24.20;11.35;;;9.00;69.40;;;;;;5005362;28;20037;-79
2021/03/02 08:17:04;;;;;;;31.45;11.60;;;8.90;69.10;;;;;;5006351;28;20042;-79
2021/03/02 08:19:58;;;;;;;29.10;12.68;;;8.60;69.90;;;;;;5010285;28;20068;-80
2021/03/02 08:22:26;;;;;;;30.83;13.15;;;8.30;70.10;;;;;;5007112;28;20070;-78
2021/03/02 08:25:04;;;;;;;28.98;12.38;;;8.60;69.80;;;;;;5011662;28;20029;-78
2021/03/02 08:27:45;;;;;;;30.08;12.02;;;9.10;69.40;;;;;;5004208;28;20099;-80
2021/03/02 08:30:11;;;;;;;23.55;12.48;;;9.50;68.90;;;;;;5007393;28;20179;-77
2021/03/02 08:32:38;;;;;;;24.13;11.73;;;9.40;66.60;;;;;;5008167;28;20047;-77
2021/03/02 08:35:09;;;;;;;34.33;12.57;;;9.30;66.80;;;;;;5007271;28;20092;-77
2021/03/02 08:37:39;;;;;;;33.22;12.68;;;9.20;67.50;;;;;;5009608;28;20034;-78
2021/03/02 08:40:07;;;;;;;29.00;11.43;;;9.50;67.00;;;;;;5004346;28;20042;-78
2021/03/02 08:42:33;;;;;;;24.80;11.27;;;9.90;66.10;;;;;;5008874;28;20510;-78
2021/03/02 08:45:07;;;;;;;31.02;11.90;;;10.30;63.20;;;;;;5011371;28;20038;-78
2021/03/02 08:47:34;;;;;;;26.23;11.45;;;10.90;60.60;;;;;;5007962;28;20126;-78
2021/03/02 08:50:00;;;;;;;24.90;12.00;;;11.10;57.80;;;;;;5012465;28;20096;-78
2021/03/02 08:52:55;;;;;;;31.30;10.82;;;11.10;56.90;;;;;;5006000;28;20041;-79
2021/03/02 08:55:34;;;;;;;;;;;11.10;57.00;;;;;;5000092;28;20044;-78
2021/03/02 08:58:00;;;;;;;34.00;11.75;;;11.10;56.60;;;;;;5005599;28;19924;-78
2021/03/02 09:00:26;;;;;;;25.50;11.25;;;11.30;57.20;;;;;;5006953;28;20406;-78
2021/03/02 09:02:52;;;;;;;29.23;12.38;;;11.80;57.50;;;;;;5012373;28;20647;-78
2021/03/02 09:05:18;;;;;;;23.25;11.27;;;12.20;54.60;;;;;;5004160;28;20033;-78
2021/03/02 09:08:09;;;;;;;30.40;11.77;;;12.20;52.30;;;;;;5003058;28;20797;-78
2021/03/02 09:10:35;;;;;;;24.27;11.32;;;12.80;49.30;;;;;;5005761;28;20140;-78
2021/03/02 09:13:06;;;;;;;31.27;11.63;;;13.80;47.80;;;;;;5003871;28;21043;-77
2021/03/02 09:15:39;;;;;;;22.42;10.63;;;14.60;43.00;;;;;;5005643;28;20373;-79
2021/03/02 09:18:18;;;;;;;30.85;12.00;;;14.30;41.10;;;;;;5006510;28;20042;-80
2021/03/02 09:20:50;;;;;;;30.08;11.20;;;14.60;41.10;;;;;;5007109;28;20038;-79
2021/03/02 09:23:17;;;;;;;20.75;11.10;;;15.10;38.50;;;;;;5005599;28;20178;-79
2021/03/02 09:25:43;;;;;;;24.92;10.93;;;15.20;37.00;;;;;;5007652;28;20048;-79
2021/03/02 09:28:19;;;;;;;26.85;11.73;;;15.00;37.00;;;;;;5014459;28;20514;-79
2021/03/02 09:30:46;;;;;;;27.23;11.65;;;15.50;36.90;;;;;;5007695;28;20052;-79
2021/03/02 09:33:16;;;;;;;24.85;11.38;;;16.20;34.70;;;;;;5008066;28;20042;-79
2021/03/02 09:35:42;;;;;;;22.23;10.90;;;16.30;32.70;;;;;;5007190;28;20602;-78
2021/03/02 09:38:26;;;;;;;29.42;12.82;;;16.40;32.20;;;;;;5005003;28;20038;-77
2021/03/02 09:40:51;;;;;;;28.42;12.35;;;16.90;30.00;;;;;;5008790;28;20142;-78
2021/03/02 09:43:17;;;;;;;33.17;12.18;;;16.50;30.00;;;;;;5008022;28;20113;-78
2021/03/02 09:45:54;;;;;;;22.13;12.07;;;17.80;29.00;;;;;;5007525;28;20060;-78
2021/03/02 09:48:20;;;;;;;30.45;11.65;;;17.50;27.40;;;;;;5007359;28;20142;-79
2021/03/02 09:50:46;;;;;;;30.20;12.90;;;18.60;28.00;;;;;;5007302;28;20128;-78
2021/03/02 09:53:13;;;;;;;26.70;12.30;;;18.40;26.70;;;;;;5008401;28;20063;-79
2021/03/02 09:55:38;;;;;;;22.60;12.73;;;19.00;26.20;;;;;;5007843;28;20057;-78
2021/03/02 09:58:12;;;;;;;30.20;11.63;;;18.90;24.90;;;;;;5006198;28;20491;-78
2021/03/02 10:00:38;;;;;;;26.60;11.80;;;19.50;24.80;;;;;;5007396;28;20128;-78
2021/03/02 10:03:24;;;;;;;28.48;11.77;;;19.60;22.90;;;;;;5008024;28;20447;-78
2021/03/02 10:05:56;;;;;;;34.60;13.00;;;19.60;23.70;;;;;;5006302;28;20498;-77
2021/03/02 10:08:26;;;;;;;28.67;13.02;;;19.70;24.30;;;;;;5006730;28;20091;-75
2021/03/02 10:10:54;;;;;;;20.63;11.95;;;19.40;23.70;;;;;;5009348;28;20566;-76
2021/03/02 10:13:33;;;;;;;25.27;11.63;;;20.00;23.00;;;;;;5012903;28;20033;-76
2021/03/02 10:16:16;;;;;;;28.95;12.02;;;20.10;23.10;;;;;;5003456;28;20057;-77
2021/03/02 10:18:47;;;;;;;29.92;11.75;;;19.70;23.80;;;;;;5004347;28;20592;-77
2021/03/02 10:21:13;;;;;;;24.25;12.70;;;19.90;23.20;;;;;;5010037;28;20189;-78
2021/03/02 10:23:43;;;;;;;28.02;11.88;;;19.50;23.30;;;;;;5007515;28;20179;-76
2021/03/02 10:26:10;;;;;;;29.60;11.98;;;20.30;22.50;;;;;;5005959;28;20056;-78
2021/03/02 10:28:36;;;;;;;24.77;12.93;;;20.10;22.40;;;;;;5004702;28;20030;-76
2021/03/02 10:31:02;;;;;;;22.52;11.90;;;20.40;21.90;;;;;;5005811;28;20061;-77
2021/03/02 10:33:28;;;;;;;22.20;12.25;;;20.30;21.70;;;;;;5006730;28;20076;-77
2021/03/02 10:35:54;;;;;;;28.60;11.82;;;20.80;21.40;;;;;;5005035;28;20628;-77
2021/03/02 10:38:20;;;;;;;24.88;12.63;;;20.60;22.20;;;;;;5004628;28;20042;-76
2021/03/02 10:40:45;;;;;;;25.58;12.88;;;20.80;21.70;;;;;;5007367;28;20478;-76
2021/03/02 10:43:11;;;;;;;29.15;12.77;;;20.30;21.20;;;;;;5003422;28;20049;-77
2021/03/02 10:45:36;;;;;;;24.48;12.35;;;20.50;21.80;;;;;;5000491;28;20096;-77
2021/03/02 10:48:03;;;;;;;25.63;12.07;;;20.60;22.20;;;;;;5006475;28;20065;-77
2021/03/02 10:50:29;;;;;;;25.38;13.88;;;21.00;21.50;;;;;;5004260;28;20044;-77
2021/03/02 10:52:56;;;;;;;25.75;13.52;;;20.80;21.20;;;;;;4999314;28;20050;-77
2021/03/02 10:55:22;;;;;;;20.92;12.40;;;20.30;21.60;;;;;;5011320;28;20038;-78
2021/03/02 10:57:47;;;;;;;27.70;12.68;;;20.20;21.80;;;;;;5000022;28;20038;-78
2021/03/02 11:00:14;;;;;;;38.50;12.68;;;19.30;23.50;;;;;;4999895;28;20042;-78
2021/03/02 11:02:39;;;;;;;25.30;12.23;;;18.90;23.10;;;;;;5000985;28;20277;-77
2021/03/02 11:05:06;;;;;;;23.17;12.68;;;18.40;24.60;;;;;;4998489;28;20041;-76
2021/03/02 11:07:32;;;;;;;25.52;12.32;;;17.60;25.40;;;;;;5000354;28;20076;-76
2021/03/02 11:09:57;;;;;;;27.60;12.23;;;17.10;26.60;;;;;;5000376;28;20705;-75
2021/03/02 11:12:23;;;;;;;23.52;12.65;;;16.50;27.30;;;;;;5009006;28;20038;-76
2021/03/02 11:14:48;;;;;;;30.73;14.05;;;16.40;28.10;;;;;;5004023;28;20157;-75
2021/03/02 11:17:14;;;;;;;30.67;13.57;;;15.40;29.50;;;;;;5003326;28;20122;-76
2021/03/02 11:19:39;;;;;;;36.65;13.75;;;15.60;30.40;;;;;;5003187;28;20045;-75
2021/03/02 11:22:05;;;;;;;30.40;13.27;;;15.60;29.80;;;;;;5005260;28;20046;-75
2021/03/02 11:24:31;;;;;;;28.27;13.73;;;15.30;30.60;;;;;;5004309;28;20069;-75
2021/03/02 11:26:56;;;;;;;32.95;14.98;;;15.10;31.50;;;;;;5001506;28;20049;-76
2021/03/02 11:29:22;;;;;;;26.70;13.02;;;15.30;32.20;;;;;;5003806;28;20044;-76
2021/03/02 11:31:47;;;;;;;30.55;14.00;;;15.20;31.80;;;;;;5002998;28;20037;-76
2021/03/02 11:34:13;;;;;;;31.52;12.55;;;15.20;31.40;;;;;;5001985;28;20038;-76
2021/03/02 11:36:39;;;;;;;31.50;13.88;;;15.20;31.60;;;;;;5001492;28;20040;-76
2021/03/02 11:39:04;;;;;;;29.92;13.38;;;15.40;31.60;;;;;;5013065;28;20589;-76
2021/03/02 11:41:30;;;;;;;30.13;13.60;;;15.30;31.90;;;;;;5008161;28;20042;-76
2021/03/02 11:43:55;;;;;;;26.10;13.30;;;15.40;31.80;;;;;;5011638;28;20103;-77
2021/03/02 11:46:21;;;;;;;29.88;13.70;;;15.30;31.20;;;;;;5012483;28;20121;-77
2021/03/02 11:48:47;;;;;;;37.95;16.10;;;15.30;31.50;;;;;;5011247;28;20049;-75
2021/03/02 11:51:12;;;;;;;31.55;13.77;;;15.20;31.80;;;;;;5009656;28;20033;-77
2021/03/02 11:53:38;;;;;;;34.42;13.57;;;15.20;31.50;;;;;;5009745;28;20038;-77
2021/03/02 11:56:04;;;;;;;32.63;13.02;;;15.30;31.50;;;;;;5011068;28;20033;-76
2021/03/02 11:58:30;;;;;;;35.78;13.95;;;15.10;31.20;;;;;;5008172;28;20042;-78
2021/03/02 12:00:56;;;;;;;24.33;12.88;;;15.10;31.20;;;;;;5010227;28;24246;-79
2021/03/02 12:03:22;;;;;;;31.83;12.95;;;15.20;31.20;;;;;;5007525;28;20115;-79
2021/03/02 12:05:48;;;;;;;30.15;12.55;;;15.20;30.00;;;;;;5006886;28;20454;-79
2021/03/02 12:08:14;;;;;;;27.27;12.93;;;15.30;31.00;;;;;;5011583;28;20038;-79
2021/03/02 12:10:40;;;;;;;25.10;13.02;;;15.30;31.80;;;;;;5008078;28;20395;-79
2021/03/02 12:13:06;;;;;;;27.35;12.55;;;15.30;30.90;;;;;;5009295;28;20037;-78
2021/03/02 12:15:32;;;;;;;32.15;12.88;;;15.40;29.70;;;;;;5006553;28;20069;-79
2021/03/02 12:17:57;;;;;;;32.40;12.75;;;15.50;29.50;;;;;;5005015;28;20049;-79
2021/03/02 12:20:23;;;;;;;24.77;11.77;;;15.50;29.10;;;;;;5005120;28;20848;-78
2021/03/02 12:22:48;;;;;;;27.52;12.07;;;15.50;28.60;;;;;;5002917;28;20161;-79
2021/03/02 12:25:14;;;;;;;31.25;13.98;;;15.40;28.90;;;;;;5009057;28;20037;-77
2021/03/02 12:27:40;;;;;;;23.70;11.68;;;15.50;28.80;;;;;;5001213;28;20042;-79
2021/03/02 12:30:06;;;;;;;24.08;11.63;;;15.50;27.30;;;;;;5003031;28;20034;-78
2021/03/02 12:32:32;;;;;;;38.22;12.02;;;15.50;26.40;;;;;;5003907;28;20037;-79
2021/03/02 12:34:58;;;;;;;26.92;12.50;;;15.30;27.80;;;;;;5004081;28;20038;-79
2021/03/02 12:37:23;;;;;;;24.73;10.63;;;15.60;27.60;;;;;;5001332;28;20042;-78
2021/03/02 12:39:49;;;;;;;37.95;11.85;;;15.50;26.10;;;;;;5003087;28;20037;-77
2021/03/02 12:42:15;;;;;;;28.60;12.07;;;15.50;26.00;;;;;;5010756;28;20049;-79
2021/03/02 12:44:40;;;;;;;35.53;13.60;;;15.60;27.30;;;;;;5005769;28;20461;-79